Time;durP1;ratioP1;P1;durP2;ratioP2;P2;SDS_P1;SDS_P2;PMS_P1;PMS_P2;Temp;Humidity;BMP_temperature;BMP_pressure;BME280_temperature;BME280_humidity;BME280_pressure;Samples;Min_cycle;Max_cycle;Signal;HPM_P1;HPM_P2
2022/03/18 00:01:22;;;;;;;0.10;0.10;;;7.10;99.90;;;7.01;100.00;101761.88;5052686;28;20211;-74
2022/03/18 00:03:52;;;;;;;0.20;0.20;;;;;;;7.01;100.00;101761.88;5052820;28;20209;-76
2022/03/18 00:06:20;;;;;;;0.20;0.20;;;7.10;99.90;;;6.99;100.00;101753.00;5051738;28;20230;-77
2022/03/18 00:08:49;;;;;;;0.10;0.10;;;;;;;6.99;100.00;101760.00;5047569;28;20202;-75
2022/03/18 00:11:16;;;;;;;0.20;0.20;;;7.10;99.90;;;6.98;100.00;101763.47;5034953;28;20226;-76
2022/03/18 00:13:44;;;;;;;0.10;0.10;;;7.10;99.90;;;6.97;100.00;101759.94;5049894;28;20204;-74
2022/03/18 00:16:12;;;;;;;0.20;0.20;;;7.10;99.90;;;6.98;100.00;101758.19;5025766;28;20207;-75
2022/03/18 00:18:40;;;;;;;0.20;0.20;;;7.10;99.90;;;6.98;100.00;101764.38;5046868;28;20202;-75
2022/03/18 00:21:09;;;;;;;0.20;0.20;;;7.10;99.90;;;6.97;100.00;101764.28;5049898;28;20233;-78
2022/03/18 00:23:37;;;;;;;0.10;0.10;;;7.10;99.90;;;6.95;100.00;101758.06;5052479;28;20214;-75
2022/03/18 00:26:05;;;;;;;0.20;0.20;;;7.00;99.90;;;6.95;100.00;101755.44;5047446;28;20234;-75
2022/03/18 00:28:32;;;;;;;0.20;0.20;;;7.00;99.90;;;6.96;100.00;101752.88;5050631;28;20202;-74
2022/03/18 00:31:02;;;;;;;0.20;0.20;;;7.00;99.90;;;6.94;100.00;101753.63;5050567;28;20238;-74
2022/03/18 00:33:31;;;;;;;0.20;0.20;;;7.00;99.90;;;6.92;100.00;101753.56;5034232;28;20198;-75
2022/03/18 00:35:58;;;;;;;0.20;0.20;;;7.00;99.90;;;6.92;100.00;101753.56;5048585;28;20203;-76
2022/03/18 00:38:27;;;;;;;0.20;0.20;;;7.00;99.90;;;6.92;100.00;101744.78;5038904;28;20217;-75
2022/03/18 00:40:56;;;;;;;0.20;0.20;;;7.00;99.90;;;6.91;100.00;101738.63;5051435;28;20223;-74
2022/03/18 00:43:24;;;;;;;0.20;0.20;;;7.00;99.90;;;6.89;100.00;101742.00;5034423;28;20214;-74
2022/03/18 00:45:52;;;;;;;0.20;0.20;;;7.00;99.90;;;6.88;100.00;101735.84;5033621;28;20226;-74
2022/03/18 00:53:54;;;;;;;0.10;0.10;;;7.00;99.90;;;6.82;100.00;101753.09;5047580;28;20210;-74
2022/03/18 00:56:22;;;;;;;0.20;0.20;;;6.90;99.90;;;6.79;100.00;101748.59;5047076;28;20210;-73
2022/03/18 00:58:50;;;;;;;0.20;0.20;;;6.90;99.90;;;6.79;100.00;101752.94;5050561;28;20207;-74
2022/03/18 01:01:18;;;;;;;0.10;0.10;;;6.90;99.90;;;6.77;100.00;101751.97;5051533;28;20607;-73
2022/03/18 01:03:46;;;;;;;0.20;0.20;;;6.90;99.90;;;6.75;100.00;101757.16;5025393;28;20211;-74
2022/03/18 01:06:14;;;;;;;0.20;0.20;;;6.90;99.90;;;6.73;100.00;101765.00;5016592;28;20234;-74
2022/03/18 01:08:42;;;;;;;0.20;0.20;;;6.80;99.90;;;6.73;100.00;101772.88;5032243;28;20206;-74
2022/03/18 01:11:09;;;;;;;0.20;0.20;;;6.80;99.90;;;6.72;100.00;101771.06;5050152;28;20241;-73
2022/03/18 01:13:37;;;;;;;0.20;0.20;;;6.80;99.90;;;6.70;100.00;101777.09;5049917;28;20206;-73
2022/03/18 01:16:06;;;;;;;0.20;0.20;;;;;;;6.70;100.00;101774.47;5051395;28;20198;-73
2022/03/18 01:18:34;;;;;;;0.20;0.20;;;6.80;99.90;;;6.67;100.00;101788.38;5051674;28;20195;-74
2022/03/18 01:21:02;;;;;;;0.10;0.10;;;6.80;99.90;;;6.67;100.00;101793.63;5049832;28;20301;-74
2022/03/18 01:23:31;;;;;;;0.20;0.20;;;6.80;99.90;;;6.66;100.00;101788.31;5031334;28;20199;-74
2022/03/18 01:25:59;;;;;;;0.20;0.20;;;6.80;99.90;;;6.64;100.00;101779.44;5049728;28;20199;-74
2022/03/18 01:28:27;;;;;;;0.20;0.20;;;6.80;99.90;;;6.62;100.00;101789.88;5017241;28;20218;-73
2022/03/18 01:30:56;;;;;;;0.20;0.20;;;6.80;99.90;;;6.63;100.00;101796.03;5046161;28;20226;-74
2022/03/18 01:33:24;;;;;;;0.20;0.20;;;6.80;99.90;;;6.62;100.00;101789.00;5049878;28;20200;-75
2022/03/18 01:35:52;;;;;;;0.20;0.20;;;6.70;99.90;;;6.60;100.00;101793.28;5050454;28;20195;-74
2022/03/18 01:38:20;;;;;;;0.10;0.10;;;6.70;99.90;;;6.60;100.00;101799.44;5052508;28;20206;-74
2022/03/18 01:40:48;;;;;;;0.20;0.20;;;6.70;99.90;;;6.60;100.00;101799.44;5049970;28;20229;-73
2022/03/18 01:43:17;;;;;;;0.20;0.20;;;6.70;99.90;;;6.59;100.00;101807.25;5056978;28;20209;-73
2022/03/18 01:45:45;;;;;;;0.10;0.10;;;6.70;99.90;;;6.57;100.00;101812.44;5051066;28;20207;-75
2022/03/18 01:48:14;;;;;;;0.30;0.30;;;6.70;99.90;;;6.56;100.00;101807.09;5056571;28;20234;-74
2022/03/18 01:50:42;;;;;;;0.20;0.20;;;6.70;99.90;;;6.56;100.00;101805.38;5056628;28;20237;-74
2022/03/18 01:53:10;;;;;;;0.17;0.17;;;6.70;99.90;;;6.56;100.00;101812.34;5044503;28;20210;-73
2022/03/18 01:55:38;;;;;;;0.17;0.17;;;6.70;99.90;;;6.52;100.00;101813.94;5045420;28;20210;-73
2022/03/18 01:58:06;;;;;;;0.20;0.20;;;6.70;99.90;;;6.51;100.00;101822.66;5031060;28;20225;-74
2022/03/18 02:00:34;;;;;;;0.20;0.20;;;6.60;99.90;;;6.47;100.00;101831.19;5055033;28;20230;-74
2022/03/18 02:03:02;;;;;;;0.20;0.20;;;6.60;99.90;;;6.46;100.00;101837.28;5057222;28;20206;-74
2022/03/18 02:05:31;;;;;;;0.20;0.20;;;6.60;99.90;;;6.46;100.00;101845.16;5056803;28;20217;-74
2022/03/18 02:08:01;;;;;;;0.20;0.20;;;6.60;99.90;;;6.47;100.00;101844.31;5040089;28;20225;-74
2022/03/18 02:10:29;;;;;;;0.20;0.20;;;;;;;6.45;100.00;101845.06;5040331;28;20229;-74
2022/03/18 02:12:57;;;;;;;0.20;0.20;;;6.60;99.90;;;6.45;100.00;101852.97;5057174;28;20198;-74
2022/03/18 02:15:25;;;;;;;0.20;0.20;;;6.60;99.90;;;6.45;100.00;101855.59;5056974;28;20202;-74
2022/03/18 02:17:53;;;;;;;0.30;0.30;;;6.60;99.90;;;6.43;100.00;101860.78;5039585;28;20206;-73
2022/03/18 02:20:21;;;;;;;0.20;0.20;;;6.60;99.90;;;6.44;100.00;101873.09;5057106;28;20225;-74
2022/03/18 02:22:49;;;;;;;0.20;0.20;;;6.60;99.90;;;6.45;100.00;101881.88;5050331;28;20209;-73
2022/03/18 02:25:17;;;;;;;0.20;0.20;;;6.60;99.90;;;6.39;100.00;101867.59;5036570;28;20206;-76
2022/03/18 02:28:01;;;;;;;0.20;0.20;;;6.60;99.90;;;6.39;100.00;101872.84;5057061;28;20229;-75
2022/03/18 02:30:32;;;;;;;0.20;0.20;;;6.50;99.90;;;6.39;100.00;101883.38;5036319;28;20242;-74
2022/03/18 02:33:01;;;;;;;0.20;0.20;;;6.50;99.90;;;6.39;100.00;101880.75;5049508;28;20198;-74
2022/03/18 02:35:30;;;;;;;0.20;0.20;;;6.50;99.90;;;6.40;100.00;101884.28;5022973;28;20207;-73
2022/03/18 02:38:01;;;;;;;0.20;0.20;;;6.50;99.90;;;6.40;100.00;101876.41;5056965;28;20208;-74
2022/03/18 02:40:30;;;;;;;0.10;0.10;;;6.50;99.90;;;6.39;100.00;101887.72;5055682;28;20225;-74
2022/03/18 02:42:58;;;;;;;0.20;0.20;;;6.50;99.90;;;6.40;100.00;101873.75;5054928;28;20202;-74
2022/03/18 02:45:26;;;;;;;0.20;0.20;;;6.50;99.90;;;6.37;100.00;101879.78;5013694;28;20203;-74
2022/03/18 02:47:54;;;;;;;0.20;0.20;;;6.50;99.90;;;6.37;100.00;101878.88;5035445;28;20226;-74
2022/03/18 02:50:22;;;;;;;0.20;0.20;;;6.50;99.90;;;6.37;100.00;101885.03;5039675;28;20234;-74
2022/03/18 02:52:50;;;;;;;0.20;0.20;;;6.50;99.90;;;6.38;100.00;101897.34;5048496;28;20562;-74
2022/03/18 02:55:18;;;;;;;0.20;0.20;;;6.50;99.90;;;6.36;100.00;101891.09;5043181;28;20308;-75
2022/03/18 02:57:47;;;;;;;0.10;0.10;;;6.50;99.90;;;6.35;100.00;101889.31;5053616;28;20213;-74
2022/03/18 03:00:16;;;;;;;0.20;0.20;;;6.50;99.90;;;6.35;100.00;101886.69;5052474;28;20230;-74
2022/03/18 03:02:45;;;;;;;0.20;0.20;;;6.50;99.90;;;6.35;100.00;101883.16;5045731;28;20199;-74
2022/03/18 03:08:00;;;;;;;0.20;0.20;;;6.50;99.90;;;6.34;100.00;101895.38;5049348;28;20222;-74
2022/03/18 03:10:34;;;;;;;0.20;0.20;;;6.50;99.90;;;6.33;100.00;101892.69;5053450;28;20226;-74
2022/03/18 03:13:06;;;;;;;0.20;0.20;;;6.50;99.90;;;6.31;100.00;101900.50;5053391;28;20214;-73
2022/03/18 03:15:34;;;;;;;0.20;0.20;;;6.40;99.90;;;6.30;100.00;101897.78;5052788;28;20202;-73
2022/03/18 03:18:02;;;;;;;0.65;0.65;;;6.40;99.90;;;6.30;100.00;101909.19;5052713;28;20214;-74
2022/03/18 03:20:31;;;;;;;0.20;0.20;;;6.40;99.90;;;6.29;100.00;101904.78;5018054;28;20218;-74
2022/03/18 03:22:59;;;;;;;0.20;0.20;;;6.40;99.90;;;6.30;100.00;101903.03;5035888;28;20202;-74
2022/03/18 03:25:27;;;;;;;0.20;0.20;;;6.40;99.90;;;6.26;100.00;101902.00;5052604;28;20237;-74
2022/03/18 03:27:55;;;;;;;0.20;0.20;;;6.40;99.90;;;6.25;100.00;101908.06;5028832;28;20233;-74
2022/03/18 03:30:24;;;;;;;0.20;0.20;;;6.40;99.90;;;6.24;100.00;101910.63;5051867;28;20231;-74
2022/03/18 03:32:53;;;;;;;0.20;0.20;;;6.40;99.90;;;6.22;100.00;101920.16;5050624;28;20210;-74
2022/03/18 03:35:21;;;;;;;0.20;0.20;;;6.40;99.90;;;6.17;100.00;101905.88;5048309;28;20205;-75
2022/03/18 03:37:49;;;;;;;0.20;0.20;;;6.40;99.90;;;6.15;100.00;101912.78;5032139;28;20220;-75
2022/03/18 03:40:18;;;;;;;0.20;0.20;;;6.30;99.90;;;6.12;100.00;101916.16;5035300;28;20236;-75
2022/03/18 03:42:46;;;;;;;0.20;0.20;;;6.30;99.90;;;6.08;100.00;101922.09;5029445;28;20195;-74
2022/03/18 03:45:14;;;;;;;0.20;0.20;;;6.30;99.90;;;6.06;100.00;101926.34;5051952;28;20194;-75
2022/03/18 03:47:43;;;;;;;0.10;0.10;;;;;;;6.03;100.00;101926.19;5047469;28;20227;-74
2022/03/18 03:50:12;;;;;;;0.20;0.20;;;6.20;99.90;;;5.99;100.00;101925.13;5046230;28;20610;-74
2022/03/18 03:52:40;;;;;;;0.20;0.20;;;6.20;99.90;;;5.95;100.00;101931.06;5052722;28;20249;-74
2022/03/18 03:55:12;;;;;;;0.20;0.20;;;6.20;99.90;;;5.92;100.00;101938.78;5051201;28;20213;-74
2022/03/18 03:57:41;;;;;;;0.20;0.20;;;6.10;99.90;;;5.88;100.00;101939.41;5049720;28;20207;-75
2022/03/18 04:00:10;;;;;;;0.20;0.20;;;6.10;99.90;;;5.87;100.00;101948.09;5051923;28;20233;-75
2022/03/18 04:02:39;;;;;;;0.20;0.20;;;6.00;99.90;;;5.83;100.00;101948.78;5044757;28;20206;-75
2022/03/18 04:05:08;;;;;;;0.20;0.20;;;6.00;99.90;;;5.77;100.00;101954.59;5034855;28;20211;-75
2022/03/18 04:07:39;;;;;;;0.20;0.20;;;6.00;99.90;;;5.75;100.00;101952.72;5048441;28;20219;-75
2022/03/18 04:10:10;;;;;;;0.20;0.20;;;6.00;99.90;;;5.72;100.00;101955.19;5052115;28;20223;-74
2022/03/18 04:12:39;;;;;;;0.10;0.10;;;5.90;99.90;;;5.72;100.00;101971.84;5052309;28;20225;-74
2022/03/18 04:15:08;;;;;;;0.20;0.20;;;5.90;99.90;;;5.70;100.00;101969.94;5052254;28;20206;-75
2022/03/18 04:17:55;;;;;;;0.20;0.20;;;5.90;99.90;;;5.69;100.00;101974.28;5051993;28;20202;-74
2022/03/18 04:20:23;;;;;;;0.20;0.20;;;5.90;99.90;;;5.70;100.00;101989.22;5051612;28;20218;-74
2022/03/18 04:22:52;;;;;;;0.20;0.20;;;5.80;99.90;;;5.64;100.00;101988.91;5053147;28;20210;-77
2022/03/18 04:25:20;;;;;;;0.20;0.20;;;5.80;99.90;;;5.64;100.00;101990.63;5052533;28;20210;-74
2022/03/18 04:27:49;;;;;;;0.20;0.20;;;5.80;99.90;;;5.64;100.00;101991.53;5052272;28;20222;-74
2022/03/18 04:30:17;;;;;;;0.20;0.20;;;5.80;99.90;;;5.61;100.00;101991.34;5047981;28;20237;-74
2022/03/18 04:32:45;;;;;;;0.20;0.20;;;5.80;99.90;;;5.61;100.00;102006.19;5051692;28;20203;-77
2022/03/18 04:35:13;;;;;;;0.20;0.20;;;5.80;99.90;;;5.60;100.00;102004.41;5030475;28;20207;-77
2022/03/18 04:37:42;;;;;;;0.20;0.20;;;5.80;99.90;;;5.62;100.00;102016.78;5045927;28;20207;-77
2022/03/18 04:40:13;;;;;;;0.20;0.20;;;5.80;99.90;;;5.62;100.00;102029.91;5031682;28;20585;-78
2022/03/18 04:42:44;;;;;;;0.10;0.10;;;5.80;99.90;;;5.60;100.00;102026.28;5049798;28;20199;-74
2022/03/18 04:45:13;;;;;;;0.20;0.20;;;5.70;99.90;;;5.61;100.00;102032.44;5041538;28;20218;-76
2022/03/18 04:47:42;;;;;;;0.20;0.20;;;;;;;5.62;100.00;102036.88;5034340;28;20210;-74
2022/03/18 04:50:11;;;;;;;0.20;0.20;;;5.80;99.90;;;5.62;100.00;102039.50;5050714;28;20225;-74
2022/03/18 04:52:39;;;;;;;0.20;0.20;;;5.70;99.90;;;5.62;100.00;102050.00;5034346;28;20207;-74
2022/03/18 04:55:08;;;;;;;0.20;0.20;;;5.70;99.90;;;5.58;100.00;102050.66;5062752;28;20582;-76
2022/03/18 04:57:36;;;;;;;0.20;0.20;;;5.70;99.90;;;5.60;100.00;102049.00;5045841;28;20202;-74
2022/03/18 05:00:05;;;;;;;0.20;0.20;;;5.70;99.90;;;5.63;100.00;102057.97;5050863;28;20596;-73
2022/03/18 05:02:35;;;;;;;0.30;0.30;;;5.70;99.90;;;5.60;100.00;102057.78;5048862;28;20209;-74
2022/03/18 05:05:08;;;;;;;0.20;0.20;;;5.70;99.90;;;5.63;100.00;102060.59;5046659;28;20210;-73
2022/03/18 05:07:40;;;;;;;0.20;0.20;;;5.70;99.90;;;5.60;100.00;102057.78;5042114;28;20203;-73
2022/03/18 05:10:09;;;;;;;0.20;0.20;;;5.70;99.90;;;5.62;100.00;102064.03;5049626;28;20218;-74
2022/03/18 05:12:37;;;;;;;0.20;0.20;;;5.70;99.90;;;5.61;100.00;102071.81;5051367;28;20213;-73
2022/03/18 05:15:08;;;;;;;0.20;0.20;;;5.70;99.90;;;5.63;100.00;102070.19;5044648;28;20199;-76
2022/03/18 05:17:38;;;;;;;0.20;0.20;;;5.70;99.90;;;5.61;100.00;102083.22;5031559;28;20207;-76
2022/03/18 05:20:10;;;;;;;0.20;0.20;;;5.70;99.90;;;5.60;100.00;102077.88;5050098;28;20218;-75
2022/03/18 05:22:38;;;;;;;0.10;0.10;;;5.70;99.90;;;5.60;100.00;102083.13;5048159;28;20206;-75
2022/03/18 05:25:07;;;;;;;0.20;0.20;;;5.70;99.90;;;5.58;100.00;102087.41;5050986;28;20214;-74
2022/03/18 05:27:43;;;;;;;0.20;0.20;;;5.70;99.90;;;5.61;100.00;102091.09;5050492;28;20225;-73
2022/03/18 05:30:14;;;;;;;0.20;0.20;;;5.70;99.90;;;5.59;100.00;102083.94;5048222;28;20312;-73
2022/03/18 05:32:46;;;;;;;0.20;0.20;;;5.70;99.90;;;5.58;100.00;102095.28;5043162;28;20199;-73
2022/03/18 05:35:18;;;;;;;0.20;0.20;;;6.40;99.90;;;5.58;100.00;102105.75;5033435;28;20210;-77
2022/03/18 05:37:46;;;;;;;0.20;0.20;;;5.70;99.90;;;5.63;100.00;102113.06;5049582;28;20206;-78
2022/03/18 05:40:17;;;;;;;0.20;0.20;;;5.70;99.90;;;5.66;100.00;102113.25;5030010;28;20241;-75
2022/03/18 05:42:46;;;;;;;0.20;0.20;;;5.80;99.90;;;5.64;100.00;102114.88;5048826;28;20198;-74
2022/03/18 05:45:17;;;;;;;0.22;0.22;;;5.70;99.90;;;5.62;100.00;102115.63;5030328;28;20198;-75
2022/03/18 05:47:45;;;;;;;0.20;0.20;;;5.70;99.90;;;5.61;100.00;102111.19;5048337;28;20202;-74
2022/03/18 05:50:15;;;;;;;0.20;0.20;;;5.70;99.90;;;5.61;100.00;102113.81;5031359;28;20234;-75
2022/03/18 05:52:45;;;;;;;0.20;0.20;;;5.70;99.90;;;5.63;100.00;102120.94;5048622;28;20571;-75
2022/03/18 05:55:13;;;;;;;0.20;0.20;;;5.70;99.90;;;5.64;100.00;102121.84;5048272;28;20207;-75
2022/03/18 05:57:41;;;;;;;0.20;0.20;;;5.70;99.90;;;5.65;100.00;102128.91;5048373;28;20206;-74
2022/03/18 06:00:10;;;;;;;0.20;0.20;;;5.80;99.90;;;5.64;100.00;102127.09;5027652;28;20222;-76
2022/03/18 06:02:43;;;;;;;0.20;0.20;;;5.80;99.90;;;5.64;100.00;102121.84;5032444;28;20207;-76
2022/03/18 06:05:11;;;;;;;0.20;0.20;;;5.80;99.90;;;5.62;100.00;102128.75;5047534;28;20202;-75
2022/03/18 06:07:40;;;;;;;0.20;0.20;;;5.80;99.90;;;5.63;100.00;102127.91;5050607;28;20208;-74
2022/03/18 06:12:54;;;;;;;0.20;0.20;;;5.80;99.90;;;5.63;100.00;102130.53;5047951;28;20199;-76
2022/03/18 06:15:22;;;;;;;0.17;0.17;;;5.80;99.90;;;5.65;100.00;102132.44;5050231;28;20199;-76
2022/03/18 06:17:50;;;;;;;0.20;0.20;;;5.80;99.90;;;5.66;100.00;102143.84;5032358;28;20202;-74
2022/03/18 06:20:19;;;;;;;0.20;0.20;;;5.80;99.90;;;5.63;100.00;102141.94;5048563;28;20223;-73
2022/03/18 06:22:47;;;;;;;0.20;0.20;;;5.80;99.90;;;5.62;100.00;102152.38;5049722;28;20218;-73
2022/03/18 06:25:15;;;;;;;0.20;0.20;;;5.80;99.90;;;5.65;100.00;102152.53;5032495;28;20210;-73
2022/03/18 06:27:43;;;;;;;0.20;0.20;;;5.80;99.90;;;5.65;100.00;102157.78;5052278;28;20209;-73
2022/03/18 06:30:11;;;;;;;0.17;0.17;;;5.80;99.90;;;5.64;100.00;102159.50;5052719;28;20238;-73
2022/03/18 06:32:39;;;;;;;0.15;0.15;;;5.80;99.90;;;5.65;100.00;102173.53;5034950;28;20207;-73
2022/03/18 06:35:08;;;;;;;0.20;0.20;;;5.80;99.90;;;5.66;100.00;102171.00;5053142;28;20210;-73
2022/03/18 06:37:40;;;;;;;0.20;0.20;;;5.80;99.90;;;5.66;100.00;102181.50;5052903;28;20214;-73
2022/03/18 06:40:09;;;;;;;0.20;0.20;;;5.80;99.90;;;5.71;100.00;102192.25;5051744;28;20598;-73
2022/03/18 06:42:37;;;;;;;0.43;0.43;;;;;;;5.70;100.00;102195.69;5051935;28;20202;-73
2022/03/18 06:45:06;;;;;;;0.20;0.20;;;5.80;99.90;;;5.70;100.00;102196.59;5052110;28;20209;-73
2022/03/18 06:47:34;;;;;;;0.20;0.20;;;5.80;99.90;;;5.72;100.00;102207.19;5052387;28;20233;-73
2022/03/18 06:50:03;;;;;;;0.20;0.20;;;5.80;99.90;;;5.75;100.00;102207.34;5050972;28;20249;-73
2022/03/18 06:52:31;;;;;;;0.20;0.20;;;5.80;99.90;;;5.76;100.00;102210.06;5034884;28;20209;-73
2022/03/18 06:54:59;;;;;;;0.10;0.10;;;5.90;99.90;;;5.77;100.00;102216.22;5052168;28;20203;-73
2022/03/18 06:57:27;;;;;;;0.20;0.20;;;5.90;99.90;;;5.79;100.00;102211.97;5052581;28;20205;-73
2022/03/18 06:59:56;;;;;;;0.20;0.20;;;5.90;99.90;;;5.81;100.00;102217.31;5051544;28;20225;-73
2022/03/18 07:02:26;;;;;;;0.38;0.38;;;5.90;99.90;;;5.82;100.00;102220.03;5051996;28;20210;-73
2022/03/18 07:04:55;;;;;;;0.20;0.20;;;5.90;99.90;;;5.83;100.00;102228.81;5051980;28;20207;-73
2022/03/18 07:07:23;;;;;;;0.20;0.20;;;6.00;99.90;;;5.81;100.00;102217.31;5051416;28;20210;-73
2022/03/18 07:09:50;;;;;;;0.20;0.20;;;6.00;99.90;;;5.87;100.00;102228.16;5051114;28;20238;-73
2022/03/18 07:12:18;;;;;;;0.20;0.20;;;6.00;99.90;;;5.86;100.00;102222.00;5051819;28;20207;-74
2022/03/18 07:14:46;;;;;;;0.20;0.20;;;6.00;99.90;;;5.87;100.00;102231.69;5053467;28;20202;-74
2022/03/18 07:20:03;;;;;;;0.20;0.20;;;6.00;99.90;;;5.95;100.00;102245.28;5059829;28;20222;-73
2022/03/18 07:22:31;;;;;;;0.20;0.20;;;6.00;99.90;;;5.94;100.00;102240.84;5027686;28;20210;-73
2022/03/18 07:24:59;;;;;;;0.20;0.20;;;6.10;99.90;;;5.99;100.00;102245.53;5049174;28;20225;-73
2022/03/18 07:27:27;;;;;;;0.20;0.20;;;6.10;99.90;;;6.05;100.00;102253.75;5039604;28;20223;-73
2022/03/18 07:29:57;;;;;;;0.20;0.20;;;6.10;99.90;;;6.13;100.00;102263.78;5047169;28;20612;-73
2022/03/18 07:32:25;;;;;;;0.20;0.20;;;6.20;99.90;;;6.16;100.00;102267.50;5051762;28;20652;-73
2022/03/18 07:34:53;;;;;;;0.20;0.20;;;6.30;99.90;;;6.17;100.00;102260.53;5051059;28;20210;-73
2022/03/18 07:37:20;;;;;;;0.20;0.20;;;6.30;99.90;;;6.26;100.00;102276.78;5050509;28;20209;-73
2022/03/18 07:39:48;;;;;;;0.20;0.20;;;6.30;99.90;;;6.28;100.00;102267.28;5057680;28;20214;-73
2022/03/18 07:42:16;;;;;;;0.20;0.20;;;6.30;99.90;;;6.35;100.00;102266.78;5050642;28;20206;-73
2022/03/18 07:44:44;;;;;;;0.20;0.20;;;6.40;99.90;;;6.44;100.00;102262.03;5032829;28;20206;-74
2022/03/18 07:47:12;;;;;;;0.20;0.20;;;6.50;99.90;;;6.49;100.00;102268.47;5050510;28;20203;-73
2022/03/18 07:49:40;;;;;;;0.20;0.20;;;6.50;99.90;;;6.58;100.00;102276.88;5050310;28;20230;-73
2022/03/18 07:52:08;;;;;;;0.10;0.10;;;6.60;99.90;;;6.70;100.00;102288.06;5050854;28;20232;-74
2022/03/18 07:54:39;;;;;;;0.20;0.20;;;6.70;99.90;;;6.65;100.00;102270.22;5047093;28;20202;-75
2022/03/18 07:57:06;;;;;;;0.20;0.20;;;6.70;99.90;;;6.85;100.00;102294.97;4990718;28;20200;-72
2022/03/18 07:59:34;;;;;;;0.20;0.20;;;6.80;99.90;;;6.90;100.00;102283.88;4990831;28;20221;-73
2022/03/18 08:02:05;;;;;;;0.20;0.20;;;6.90;99.90;;;6.96;100.00;102276.31;4991139;28;20213;-75
2022/03/18 08:04:34;;;;;;;0.28;0.28;;;7.10;99.90;;;7.10;100.00;102297.16;4993791;28;20204;-75
2022/03/18 08:07:03;;;;;;;0.20;0.20;;;7.10;99.90;;;7.15;100.00;102285.16;4985168;28;20209;-73
2022/03/18 08:09:31;;;;;;;0.10;0.10;;;7.20;99.90;;;7.25;100.00;102295.34;4987398;28;20237;-74
2022/03/18 08:11:59;;;;;;;0.20;0.20;;;7.20;99.90;;;7.29;100.00;102287.69;4991297;28;20215;-74
2022/03/18 08:14:28;;;;;;;0.20;0.20;;;7.30;99.90;;;7.31;100.00;102288.66;4991291;28;20196;-74
2022/03/18 08:16:56;;;;;;;0.10;0.10;;;7.30;99.90;;;7.32;100.00;102277.31;4987239;28;20655;-74
2022/03/18 08:19:24;;;;;;;0.10;0.10;;;7.40;99.90;;;7.27;100.00;102268.28;4989074;28;20229;-74
2022/03/18 08:21:52;;;;;;;0.20;0.20;;;7.40;99.90;;;7.37;100.00;102290.72;4986627;28;20197;-77
2022/03/18 08:24:20;;;;;;;0.17;0.17;;;7.40;99.90;;;7.31;100.00;102269.34;5002214;28;20688;-76
2022/03/18 08:26:48;;;;;;;0.10;0.10;;;7.40;99.90;;;7.34;100.00;102272.13;4988754;28;20201;-75
2022/03/18 08:29:16;;;;;;;0.20;0.20;;;7.40;99.90;;;7.42;100.00;102276.06;4986412;28;20243;-76
2022/03/18 08:31:44;;;;;;;0.20;0.20;;;7.50;99.90;;;7.38;100.00;102274.09;4989182;28;20244;-75
2022/03/18 08:34:12;;;;;;;0.10;0.10;;;7.50;99.90;;;7.41;100.00;102281.25;4980934;28;20205;-76
2022/03/18 08:36:41;;;;;;;0.20;0.20;;;7.60;99.90;;;7.50;100.00;102279.06;4986898;28;20290;-74
2022/03/18 08:39:09;;;;;;;0.20;0.20;;;7.60;99.90;;;7.43;100.00;102269.97;4989052;28;20204;-75
2022/03/18 08:41:37;;;;;;;0.10;0.10;;;7.60;99.90;;;7.51;100.00;102279.16;4987389;28;20212;-74
2022/03/18 08:44:05;;;;;;;0.20;0.20;;;7.70;99.90;;;7.56;100.00;102268.84;4980177;28;20208;-74
2022/03/18 08:46:34;;;;;;;0.10;0.10;;;7.70;99.90;;;7.59;100.00;102271.63;4991145;28;20243;-74
2022/03/18 08:49:03;;;;;;;0.10;0.10;;;7.70;99.90;;;7.72;100.00;102293.41;4988860;28;20219;-75
2022/03/18 08:51:31;;;;;;;0.20;0.20;;;;;;;7.83;100.00;102298.34;4989010;28;20597;-76
2022/03/18 08:53:59;;;;;;;0.17;0.17;;;7.90;99.90;;;8.00;100.00;102321.16;4980958;28;20200;-77
2022/03/18 08:56:27;;;;;;;0.10;0.10;;;8.00;99.90;;;7.70;100.00;102252.00;4990016;28;20235;-74
2022/03/18 08:58:55;;;;;;;0.10;0.10;;;8.00;99.90;;;7.79;100.00;102281.44;5001361;28;20217;-78
2022/03/18 09:01:24;;;;;;;0.10;0.10;;;8.00;99.90;;;8.00;100.00;102315.88;4982569;28;20200;-74
2022/03/18 09:03:53;;;;;;;0.20;0.20;;;8.00;99.90;;;7.74;100.00;102266.22;4989762;28;20204;-74
2022/03/18 09:06:21;;;;;;;0.20;0.20;;;;;;;7.77;100.00;102258.50;4989750;28;20216;-74
2022/03/18 09:08:50;;;;;;;0.10;0.10;;;;;;;7.85;100.00;102270.34;5008681;28;20215;-76
2022/03/18 09:11:18;;;;;;;0.20;0.20;;;;;;;7.98;100.00;102280.66;4985608;28;20240;-78
2022/03/18 09:13:47;;;;;;;0.10;0.10;;;;;;;7.97;100.00;102274.47;4990412;28;20296;-75
2022/03/18 09:16:15;;;;;;;0.10;0.10;;;;;;;7.79;100.00;102241.03;4984400;28;20201;-74
2022/03/18 09:19:01;;;;;;;0.30;0.30;;;;;;;7.59;100.00;102205.81;4985526;28;20248;-76
2022/03/18 09:21:29;;;;;;;0.20;0.20;;;8.00;99.90;;;7.65;100.00;102229.81;4986207;28;20704;-77
2022/03/18 09:23:57;;;;;;;0.10;0.10;;;7.90;99.90;;;7.67;100.00;102228.16;4989994;28;20209;-76
2022/03/18 09:26:26;;;;;;;0.10;0.10;;;;;;;7.79;100.00;102254.19;4985502;28;20205;-74
2022/03/18 09:28:55;;;;;;;0.10;0.10;;;;;;;7.83;100.00;102258.81;4979608;28;20197;-74
2022/03/18 09:31:23;;;;;;;0.20;0.20;;;;;;;7.98;100.00;102284.19;4989243;28;20228;-78
2022/03/18 09:33:51;;;;;;;0.10;0.10;;;8.10;99.90;;;8.03;100.00;102287.03;4988386;28;20197;-78
2022/03/18 09:36:20;;;;;;;0.10;0.10;;;;;;;7.91;100.00;102263.63;4987408;28;20200;-74
2022/03/18 09:38:50;;;;;;;0.10;0.10;;;8.20;99.90;;;8.06;100.00;102287.19;4988984;28;20204;-74
2022/03/18 09:41:18;;;;;;;0.20;0.20;;;8.20;99.90;;;8.26;100.00;102303.97;4989625;28;20236;-76
2022/03/18 09:43:47;;;;;;;0.20;0.20;;;;;;;8.19;100.00;102280.78;4989656;28;20591;-74
2022/03/18 09:46:19;;;;;;;0.10;0.10;;;;;;;7.92;100.00;102243.47;5017378;28;20220;-76
2022/03/18 09:49:11;;;;;;;0.20;0.20;;;8.30;99.90;;;8.20;100.00;102295.78;4987677;28;20213;-75
2022/03/18 09:51:43;;;;;;;0.20;0.20;;;8.40;99.90;;;8.21;100.00;102290.56;4989498;28;20228;-74
2022/03/18 09:54:28;;;;;;;0.10;0.10;;;8.50;99.90;;;8.45;100.00;102327.78;4982368;28;20654;-77
2022/03/18 09:56:57;;;;;;;0.10;0.10;;;8.50;99.90;;;8.31;100.00;102284.00;4988390;28;20205;-74
2022/03/18 09:59:27;;;;;;;0.10;0.10;;;8.50;99.90;;;8.27;100.00;102264.50;4986611;28;20231;-77
2022/03/18 10:02:25;;;;;;;0.10;0.10;;;8.40;99.90;;;8.45;100.00;102290.88;4989456;28;20211;-75
2022/03/18 10:05:06;;;;;;;0.20;0.20;;;8.50;99.90;;;8.55;100.00;102289.56;4992616;28;20207;-74
2022/03/18 10:07:35;;;;;;;0.10;0.10;;;8.60;99.90;;;8.62;100.00;102291.66;4992015;28;20684;-74
2022/03/18 10:10:15;;;;;;;0.10;0.10;;;8.70;99.90;;;8.96;100.00;102321.38;4992778;28;20228;-73
2022/03/18 10:12:47;;;;;;;0.10;0.10;;;8.80;99.90;;;9.07;100.00;102305.13;4981314;28;20216;-74
2022/03/18 10:15:28;;;;;;;0.20;0.20;;;9.00;99.90;;;9.28;100.00;102296.47;4987576;28;20215;-76
2022/03/18 10:17:59;;;;;;;0.20;0.20;;;9.20;99.90;;;9.25;100.00;102275.22;4993977;28;20211;-76
2022/03/18 10:20:38;;;;;;;0.10;0.10;;;9.30;99.90;;;9.11;100.00;102228.81;4992676;28;20228;-75
2022/03/18 10:23:15;;;;;;;0.17;0.17;;;9.30;99.90;;;9.49;100.00;102299.13;4988563;28;20205;-77
2022/03/18 10:25:52;;;;;;;0.10;0.10;;;9.40;99.90;;;9.55;100.00;102299.41;4991477;28;20205;-75
2022/03/18 10:28:40;;;;;;;0.10;0.10;;;9.50;99.90;;;9.66;100.00;102288.38;4993500;28;20611;-77
2022/03/18 10:31:20;;;;;;;0.10;0.10;;;9.60;99.90;;;9.64;99.98;102259.25;4991470;28;20231;-75
2022/03/18 10:37:05;;;;;;;0.10;0.10;;;9.90;99.90;;;10.08;99.14;102278.69;4990068;28;20203;-80
2022/03/18 10:39:42;;;;;;;0.10;0.10;;;10.00;99.90;;;10.33;98.24;102293.81;4990893;28;20224;-77
2022/03/18 10:42:18;;;;;;;0.10;0.10;;;10.20;99.90;;;10.46;98.28;102288.19;4990341;28;20585;-76
2022/03/18 10:44:58;;;;;;;0.10;0.10;;;10.30;99.90;;;10.35;96.85;102249.81;4989053;28;20196;-76
2022/03/18 10:47:40;;;;;;;0.30;0.30;;;10.40;99.90;;;10.21;95.57;102199.03;4992916;28;20205;-75
2022/03/18 10:50:11;;;;;;;0.10;0.10;;;10.40;99.90;;;10.43;95.20;102236.06;4989431;28;20224;-77